»·PEaware :: DAL817 KLAX-KPHX

DAL817 :: KLAX-KPHX

FLIGHT INFORMATION

Flight Status: Arrived
Operator:
Delta Air Lines
More flights by this operator :: More flights under this callsign
Pilot: Kevin M. (7)
Aircraft: BOEING 737-800
(B738)
More flights by this aircraft type
Origin: KLAX Los Angeles Intl
United States
Destination: KPHX Phoenix Sky Harbor Intl
United States
More flights between these airports :: More routes between these airports
Route: +DOTSS2 CNERY BLH HYDRR1
File this flight plan on PilotEdge
Remarks:
Altitude:
(Current/Filed)
33,000ft
Speed:
(Current/Filed)
468kts
Departed: 16-Oct-19 01:17 PM
Arrived: 16-Oct-19 02:13 PM
Distance/Time
Traveled:
321nm/0:56
Distance/Time
To Go:
Arrived

Flight Plot

Page will automatically refresh every two minutes.

Flight plan parsing failed; only flown route is shown


Map Options




Map Legend


Flown Route
Filed Route
Departure Airport
Arrival Airport
Navaid (VOR, NDB)
Fix

Horizontal Profiles

Position Reports

Time Latitude Longitude Heading Altitude Ground
Speed
16-Oct-19 13:05 33.946930 -118.407780 171 123ft 0kts
16-Oct-19 13:06 33.946930 -118.407780 171 123ft 0kts
16-Oct-19 13:07 33.946930 -118.407780 171 123ft 0kts
16-Oct-19 13:08 33.946930 -118.407780 171 123ft 0kts
16-Oct-19 13:09 33.946930 -118.407780 171 123ft 0kts
16-Oct-19 13:10 33.947007 -118.407793 172 124ft 2kts
16-Oct-19 13:11 33.947538 -118.407906 136 125ft 2kts
16-Oct-19 13:12 33.947607 -118.408139 78 124ft 0kts
16-Oct-19 13:13 33.947610 -118.408119 78 124ft 0kts
16-Oct-19 13:14 33.948685 -118.405692 81 122ft 11kts
16-Oct-19 13:15 33.950011 -118.399118 359 113ft 20kts
16-Oct-19 13:16 33.947200 -118.430480 263 646ft 175kts
16-Oct-19 13:17 33.941858 -118.495927 269 2698ft 230kts
16-Oct-19 13:18 33.936681 -118.579928 264 5252ft 269kts
16-Oct-19 13:19 33.890578 -118.641813 181 8220ft 281kts
16-Oct-19 13:20 33.814137 -118.616610 157 10615ft 308kts
16-Oct-19 13:21 33.721220 -118.608358 168 11552ft 375kts
16-Oct-19 13:22 33.668782 -118.507181 93 13200ft 406kts
16-Oct-19 13:23 33.649141 -118.371018 101 15595ft 420kts
16-Oct-19 13:24 33.644557 -118.228778 89 17062ft 430kts
16-Oct-19 13:25 33.644730 -118.083364 90 18926ft 441kts
16-Oct-19 13:26 33.644596 -117.934255 90 20945ft 454kts
16-Oct-19 13:27 33.638831 -117.781574 101 22779ft 466kts
16-Oct-19 13:28 33.603484 -117.629805 106 24490ft 478kts
16-Oct-19 13:29 33.565256 -117.475188 106 26102ft 489kts
16-Oct-19 13:30 33.526214 -117.318100 106 27993ft 491kts
16-Oct-19 13:31 33.503985 -117.158662 91 30027ft 487kts
16-Oct-19 13:32 33.501749 -116.997185 90 31923ft 482kts
16-Oct-19 13:33 33.499419 -116.837003 90 32998ft 479kts
16-Oct-19 13:34 33.496912 -116.678490 90 33000ft 476kts
16-Oct-19 13:35 33.495029 -116.538936 92 32955ft 457kts
16-Oct-19 13:36 33.491891 -116.397829 92 32932ft 462kts
16-Oct-19 13:37 33.489483 -116.239832 92 32918ft 491kts
16-Oct-19 13:38 33.488324 -116.072123 85 32922ft 518kts
16-Oct-19 13:39 33.523943 -115.904460 70 32918ft 521kts
16-Oct-19 13:40 33.571964 -115.740577 70 32919ft 520kts
16-Oct-19 13:41 33.611948 -115.573562 83 32924ft 520kts
16-Oct-19 13:42 33.613517 -115.400145 92 32925ft 519kts
16-Oct-19 13:43 33.609147 -115.226927 93 32944ft 519kts
16-Oct-19 13:44 33.604691 -115.054689 91 32952ft 513kts
16-Oct-19 13:45 33.599949 -114.885197 91 32953ft 506kts
16-Oct-19 13:46 33.587971 -114.717207 101 32958ft 504kts
16-Oct-19 13:47 33.558406 -114.564540 102 32940ft 419kts
16-Oct-19 13:48 33.532692 -114.435184 103 32228ft 454kts
16-Oct-19 13:49 33.501464 -114.276016 104 28685ft 500kts
16-Oct-19 13:50 33.470725 -114.120489 105 25698ft 454kts
16-Oct-19 13:51 33.442637 -113.981420 106 24929ft 424kts
16-Oct-19 13:52 33.422633 -113.878973 105 24912ft 404kts
16-Oct-19 13:53 33.397771 -113.758401 106 24930ft 403kts
16-Oct-19 13:54 33.370790 -113.624794 106 24932ft 423kts
16-Oct-19 13:55 33.342920 -113.487685 106 22501ft 426kts
16-Oct-19 13:57 33.318811 -113.353771 104 20434ft 401kts
16-Oct-19 13:58 33.296839 -113.226554 104 18260ft 381kts
16-Oct-19 13:59 33.279398 -113.102062 102 16770ft 400kts
16-Oct-19 14:00 33.276809 -112.971225 90 14325ft 383kts
16-Oct-19 14:01 33.280451 -112.848059 84 11796ft 367kts
16-Oct-19 14:02 33.310011 -112.742931 67 10591ft 288kts
16-Oct-19 14:03 33.340188 -112.662679 66 10193ft 275kts
16-Oct-19 14:04 33.371717 -112.580315 66 8879ft 269kts
16-Oct-19 14:05 33.401262 -112.502806 66 8145ft 237kts
16-Oct-19 14:06 33.425460 -112.431036 78 7191ft 227kts
16-Oct-19 14:07 33.428701 -112.355181 90 6073ft 227kts
16-Oct-19 14:08 33.428764 -112.279410 90 5028ft 225kts
16-Oct-19 14:09 33.428802 -112.204461 90 4009ft 222kts
16-Oct-19 14:10 33.428859 -112.133340 89 2892ft 195kts
16-Oct-19 14:11 33.428920 -112.079087 88 1834ft 148kts
16-Oct-19 14:12 33.428868 -112.029309 89 1175ft 149kts
16-Oct-19 14:13 33.429761 -112.004305 52 1123ft 24kts
16-Oct-19 14:14 33.432867 -112.005057 272 1129ft 17kts
16-Oct-19 14:15 33.433561 -112.008255 318 1133ft 0kts

Navigation Log

Ident Type
Flight plan parsing failed, navigation log unavailable